Airfield :
LOGIN :

Register | Disclaimer

   EN    FR    IT 

 










Legend :    VFR   Marginal VFR   IFR   Intensive IFR   Very Intensive IFR
Visi :
Ceiling :
>= 8 km
>= 3000ft
5 to 8 km
1000 to 3000 ft
1500m to 5 km
500 to 1000 ft
800 to 1500m
200 to 500 ft
< 800m
< 200 ft
Symbols :   Thunderstorms  Fog  Heavy snow  Heavy precipitations  Wind > 20 kt
SIGMETs :     Misc.  Thunderstorms  Icing  Turbulence  Mountain Waves  Volcanic Ashes







- Airport Elevation : 1247 ft
- IATA code : PRG


LKPR - Praha Ruzyne

CURRENT METAR :
  • 210730Z 31004KT 270V340 9999 FEW018 BKN036 09/05 Q1028 NOSIG

EXPIRED METARs :
  • 210700Z 28003KT 9999 SCT018 BKN027 BKN035 07/05 Q1028 NOSIG
  • 210649Z 28003KT 240V320 9999 SCT019 BKN028 07/05 Q1028 RMK REG QNH 1024
  • 210643Z 27003KT 220V320 9999 BKN019 BKN026 07/05 Q1028 RMK REG QNH 1024
  • 210630Z 25004KT 9999 FEW020 SCT025 BKN048 06/04 Q1028 NOSIG
  • 210600Z 24005KT 9999 FEW018 05/03 Q1028 NOSIG
  • 210530Z 24004KT 9999 FEW028 05/03 Q1027 NOSIG
  • 210500Z 25004KT 9999 FEW028 05/03 Q1027 NOSIG

TAF TAF LKPR
Valid from the 21 at 06:00 until the 22 at 12:00 UTC


210500Z 2106/2212 32006KT 9999 SCT035
TEMPO 2106/2108 6000 -RA BKN020
BECMG 2110/2112 01006KT
BECMG 2118/2120 VRB02KT CAVOK
BECMG 2201/2203 3000 BR SCT004
BECMG 2203/2205 0500 FG BKN002
BECMG 2207/2209 24004KT CAVOK
No reported NOTAMs for that airfield.



MET'MAP, your aeronautical weather chart ! - Copyright ORBIFLY December 2007 - Disclaimer

ORBIFLY MET'MAP TEAM :

Programming & Development : Alexandra Zaïnal
Concept & Development : Baudouin d'Aumeries
Co-Development & Prog : Marc-Olivier Méhu
Technical & hardware support : Manuel Goepfert

Contact : metmap@orbifly.com




SOURCES & CREDITS :

   NOAA